My webcam more information My webcam


Thunder radar more information blitzortung!


Rain radar more information rain snow radar


Visit our other weather sites:

Template documentation
and downloads

And another site


You find our weather info also at:

Weather Underground

AWEKAS

Citizen Weather Observer Program (CWOP)

HAMweather, WeatherForYou, PWS Weather


Weather Underground History page Text

Daily Summary for December 11, 2018 Units:  English    Metric   Both
« Previous Day
Next Day »
Daily Weekly Monthly Yearly Custom
  Current: High: Low: Average:
Temperature: 23.5 °F TemperatureF °F 18.7 °F 20.3 °F
Dew Point: 18.3 °F DewpointF °F 14.2 °F 15.6 °F
Humidity: 80 % Humidity % 77 % 80 %
Wind Speed: 0 mph WindSpeedMPH mph 0 mph 0 mph
Wind Gust: 0 mph WindSpeedGustMPH mph - -
Wind:Calm - -
Pressure: 30.21 in PressureIn in 30.19 in -
Precipitation: 0 in      
Historical Graphs
 
 
Tabular Data for December 11, 2018
Time Temperature Dew Point Pressure Wind Wind Speed Wind Gust Humidity Rainfall Rate (Hourly)
TemperatureF °F DewpointF °F PressureIn in Calm     Humidity % HourlyPrecipIn in
00:02 20.8 °F 17.1 °F 30.19 in Calm     85 % 0 in
00:12 20.8 °F 17.1 °F 30.19 in Calm     85 % 0 in
00:22 21.7 °F 18.1 °F 30.19 in Calm     86 % 0 in
00:32 22.3 °F 17.6 °F 30.19 in Calm     82 % 0 in
00:42 22.1 °F 17.2 °F 30.19 in Calm     81 % 0 in
00:52 21.6 °F 17.2 °F 30.19 in Calm     83 % 0 in
01:02 21.4 °F 17.1 °F 30.19 in Calm     83 % 0 in
01:12 21.9 °F 17.6 °F 30.19 in Calm     83 % 0 in
01:22 22.5 °F 16.9 °F 30.19 in Calm     79 % 0 in
01:32 22.6 °F 17.4 °F 30.20 in Calm   1 mph 80 % 0 in
01:42 22.8 °F 17.1 °F 30.20 in Calm     78 % 0 in
01:52 22.5 °F 16.3 °F 30.21 in Calm     77 % 0 in
02:02 22.8 °F 16.7 °F 30.21 in Calm     77 % 0 in
02:12 22.5 °F 16.3 °F 30.21 in Calm     77 % 0 in
02:22 22.5 °F 16.7 °F 30.21 in Calm     78 % 0 in
02:32 21.9 °F 16.2 °F 30.21 in Calm     78 % 0 in
02:42 21.7 °F 16 °F 30.20 in Calm     78 % 0 in
02:52 21.9 °F 16.7 °F 30.20 in Calm     80 % 0 in
03:02 21.7 °F 16 °F 30.20 in Calm     78 % 0 in
03:12 21.7 °F 16.2 °F 30.20 in Calm     79 % 0 in
03:22 21.6 °F 16 °F 30.19 in Calm     79 % 0 in
03:32 21.4 °F 15.8 °F 30.19 in Calm     79 % 0 in
03:42 21.4 °F 15.8 °F 30.19 in Calm     79 % 0 in
03:52 20.7 °F 15.4 °F 30.19 in Calm     80 % 0 in
04:02 19.9 °F 15.1 °F 30.19 in Calm     81 % 0 in
04:12 19.2 °F 14.9 °F 30.19 in Calm     83 % 0 in
04:22 18.9 °F 14.9 °F 30.19 in Calm     84 % 0 in
04:32 19 °F 15.1 °F 30.19 in Calm     84 % 0 in
04:42 19.2 °F 14.9 °F 30.19 in Calm     83 % 0 in
04:52 19.4 °F 14.7 °F 30.19 in Calm     82 % 0 in
05:02 19.4 °F 14.7 °F 30.20 in Calm     82 % 0 in
05:12 19.2 °F 14.7 °F 30.20 in Calm     82 % 0 in
05:22 19.4 °F 14.7 °F 30.20 in Calm     82 % 0 in
05:32 19.4 °F 14.5 °F 30.21 in Calm     81 % 0 in
05:42 19.4 °F 14.7 °F 30.21 in Calm     82 % 0 in
05:52 19 °F 14.5 °F 30.21 in Calm     82 % 0 in
06:02 19 °F 14.5 °F 30.21 in Calm     82 % 0 in
06:12 19 °F 14.7 °F 30.21 in Calm     83 % 0 in
06:22 19.2 °F 14.4 °F 30.21 in Calm     81 % 0 in
06:32 19.8 °F 15.4 °F 30.22 in Calm   1 mph 83 % 0 in
06:42 19.2 °F 14.4 °F 30.21 in Calm     81 % 0 in
06:52 19.2 °F 14.9 °F 30.22 in Calm     83 % 0 in
07:02 18.9 °F 14.4 °F 30.22 in Calm     82 % 0 in
07:12 18.7 °F 14.2 °F 30.22 in Calm     82 % 0 in
07:22 18.7 °F 14.4 °F 30.21 in Calm     83 % 0 in
07:32 18.9 °F 14.9 °F 30.21 in Calm     84 % 0 in
07:42 19.6 °F 15.6 °F 30.21 in Calm     84 % 0 in
07:52 20.5 °F 15.8 °F 30.21 in Calm     82 % 0 in
08:02 21.4 °F 16.5 °F 30.21 in Calm     81 % 0 in
08:12 22.1 °F 17.2 °F 30.21 in Calm     81 % 0 in
08:22 22.8 °F 17.6 °F 30.21 in Calm   1 mph 80 % 0 in
08:32 23.5 °F 18.3 °F 30.21 in Calm     80 % 0 in
West Wareham, MA Weather
Compliments of Weather Underground - 4 mb

Script developed by  Jim McMurry - jmcmurry@mwt.net Adapted for the template by  Wim van der Kuil - Leuven-Template.eu

Equipment we use:

Weather-station
Davis Vantage Vue

Weather-program
Meteobridge

Weather-server
TP-LINK TL-MR3020

Provider
Web Hosting By

Davis Vantage Vue

Meteobridge

TP-LINK TL-MR3020

Web Hosting By